createdAt,value
2017-12-28T00:01:04.901Z,5.90
2017-12-28T00:02:04.839Z,5.84
2017-12-28T00:03:58.199Z,5.90
2017-12-28T00:04:58.175Z,5.85
2017-12-28T00:06:54.850Z,5.85
2017-12-28T00:07:54.809Z,5.88
2017-12-28T00:09:48.288Z,5.88
2017-12-28T00:10:48.151Z,5.87
2017-12-28T00:12:44.025Z,5.85
2017-12-28T00:13:43.987Z,5.82
2017-12-28T00:15:38.171Z,5.84
2017-12-28T00:16:38.120Z,5.88
2017-12-28T00:18:31.479Z,5.88
2017-12-28T00:19:31.437Z,5.85
2017-12-28T00:21:24.807Z,5.91
2017-12-28T00:22:24.754Z,5.70
2017-12-28T00:24:18.115Z,5.73
2017-12-28T00:25:18.074Z,5.66
2017-12-28T00:27:11.435Z,5.66
2017-12-28T00:28:11.388Z,5.58
2017-12-28T00:30:04.744Z,5.62
2017-12-28T00:31:04.701Z,5.58
2017-12-28T00:33:00.609Z,5.55
2017-12-28T00:34:00.552Z,5.58
2017-12-28T00:35:53.909Z,5.59
2017-12-28T00:36:53.877Z,5.50
2017-12-28T00:38:47.247Z,5.59
2017-12-28T00:39:47.220Z,5.54
2017-12-28T00:41:43.051Z,5.59
2017-12-28T00:42:43.008Z,5.59
2017-12-28T00:44:38.872Z,5.59
2017-12-28T00:45:38.824Z,5.58
2017-12-28T00:47:34.704Z,5.57
2017-12-28T00:48:34.657Z,5.52
2017-12-28T00:50:28.016Z,5.55
2017-12-28T00:51:27.974Z,5.62
2017-12-28T00:53:21.348Z,5.43
2017-12-28T00:54:21.306Z,5.51
2017-12-28T00:56:14.668Z,5.43
2017-12-28T00:57:14.627Z,5.50
2017-12-28T00:59:08.192Z,5.48
2017-12-28T01:00:08.147Z,5.48
2017-12-28T01:02:01.546Z,5.48
2017-12-28T01:03:01.479Z,5.47
2017-12-28T01:04:57.358Z,5.50
2017-12-28T01:05:57.289Z,5.47
2017-12-28T01:07:50.656Z,5.51
2017-12-28T01:08:50.605Z,5.47
2017-12-28T01:10:43.972Z,5.44
2017-12-28T01:11:43.935Z,5.40
2017-12-28T01:13:37.302Z,5.44
2017-12-28T01:14:37.251Z,5.37
2017-12-28T01:16:31.509Z,5.47
2017-12-28T01:17:31.467Z,5.51
2017-12-28T01:19:27.355Z,5.54
2017-12-28T01:20:27.320Z,5.51
2017-12-28T01:22:20.630Z,5.61
2017-12-28T01:23:20.584Z,5.57
2017-12-28T01:25:13.942Z,5.65
2017-12-28T01:26:13.896Z,5.58
2017-12-28T01:28:07.269Z,5.65
2017-12-28T01:29:07.226Z,5.65
2017-12-28T01:31:00.578Z,5.66
2017-12-28T01:32:00.538Z,5.67
2017-12-28T01:33:53.897Z,5.69
2017-12-28T01:34:53.850Z,5.70
2017-12-28T01:36:49.718Z,5.77
2017-12-28T01:37:49.674Z,5.73
2017-12-28T01:39:43.038Z,5.85
2017-12-28T01:40:42.994Z,5.88
2017-12-28T01:42:36.377Z,5.84
2017-12-28T01:43:36.316Z,5.95
2017-12-28T01:45:29.669Z,5.87
2017-12-28T01:46:29.628Z,5.85
2017-12-28T01:48:25.498Z,5.95
2017-12-28T01:49:25.461Z,5.95
2017-12-28T01:51:21.338Z,6.02
2017-12-28T01:52:21.283Z,5.88
2017-12-28T01:54:17.152Z,5.91
2017-12-28T01:55:17.095Z,5.88
2017-12-28T01:57:10.476Z,6.00
2017-12-28T01:58:10.424Z,6.00
2017-12-28T02:00:03.782Z,5.98
2017-12-28T02:01:03.733Z,6.06
2017-12-28T02:02:57.096Z,5.95
2017-12-28T02:03:57.052Z,6.05
2017-12-28T02:05:50.448Z,5.98
2017-12-28T02:06:50.373Z,5.95
2017-12-28T02:08:46.255Z,6.05
2017-12-28T02:09:46.196Z,5.95
2017-12-28T02:11:39.566Z,6.02
2017-12-28T02:12:39.524Z,6.00
2017-12-28T02:14:32.879Z,5.94
2017-12-28T02:15:32.834Z,5.97
2017-12-28T02:17:28.705Z,5.98
2017-12-28T02:18:28.664Z,5.95
2017-12-28T02:20:24.526Z,6.00
2017-12-28T02:21:24.487Z,6.00
2017-12-28T02:23:17.846Z,6.06
2017-12-28T02:24:17.798Z,6.02
2017-12-28T02:26:14.518Z,6.06
2017-12-28T02:27:14.471Z,6.00
2017-12-28T02:29:10.320Z,6.03
2017-12-28T02:30:10.258Z,6.00
2017-12-28T02:32:06.979Z,6.00
2017-12-28T02:33:06.932Z,5.97
2017-12-28T02:35:00.299Z,5.98
2017-12-28T02:36:00.256Z,5.94
2017-12-28T02:37:53.631Z,5.93
2017-12-28T02:38:53.575Z,5.94
2017-12-28T02:40:46.942Z,5.97
2017-12-28T02:41:46.894Z,5.93
2017-12-28T02:43:43.606Z,5.94
2017-12-28T02:44:43.560Z,5.88
2017-12-28T02:46:39.553Z,5.93
2017-12-28T02:47:39.460Z,5.94
2017-12-28T02:49:32.813Z,5.97
2017-12-28T02:50:32.773Z,5.91
2017-12-28T02:52:26.124Z,5.91
2017-12-28T02:53:26.087Z,5.88
2017-12-28T02:55:19.442Z,5.84
2017-12-28T02:56:19.401Z,5.85
2017-12-28T02:58:15.260Z,5.84
2017-12-28T02:59:15.217Z,5.85
2017-12-28T03:01:08.564Z,5.87
2017-12-28T03:02:08.549Z,5.90
2017-12-28T03:04:01.884Z,5.84
2017-12-28T03:05:01.840Z,5.76
2017-12-28T03:06:55.196Z,5.80
2017-12-28T03:07:55.153Z,5.75
2017-12-28T03:09:48.524Z,5.80
2017-12-28T03:10:48.477Z,5.77
2017-12-28T03:12:41.844Z,5.79
2017-12-28T03:13:41.799Z,5.69
2017-12-28T03:15:35.148Z,5.72
2017-12-28T03:16:35.106Z,5.72
2017-12-28T03:18:30.976Z,5.65
2017-12-28T03:19:30.933Z,5.65
2017-12-28T03:21:24.482Z,5.72
2017-12-28T03:22:24.298Z,5.76
2017-12-28T03:24:17.611Z,5.75
2017-12-28T03:25:17.615Z,5.69
2017-12-28T03:27:13.484Z,5.67
2017-12-28T03:28:13.429Z,5.70
2017-12-28T03:30:06.793Z,5.69
2017-12-28T03:31:06.756Z,5.69
2017-12-28T03:33:00.117Z,5.76
2017-12-28T03:34:00.103Z,5.73
2017-12-28T03:35:53.421Z,5.76
2017-12-28T03:36:53.381Z,5.72
2017-12-28T03:38:46.756Z,5.77
2017-12-28T03:39:46.702Z,5.72
2017-12-28T03:41:40.070Z,5.65
2017-12-28T03:42:40.024Z,5.65
2017-12-28T03:44:33.399Z,5.67
2017-12-28T03:45:33.351Z,5.69
2017-12-28T03:47:26.943Z,5.62
2017-12-28T03:48:26.888Z,5.66
2017-12-28T03:50:20.263Z,5.65
2017-12-28T03:51:20.214Z,5.62
2017-12-28T03:53:13.571Z,5.61
2017-12-28T03:54:13.534Z,5.61
2017-12-28T03:56:10.279Z,5.61
2017-12-28T03:57:10.238Z,5.55
2017-12-28T03:59:03.623Z,5.58
2017-12-28T04:00:03.582Z,5.55
2017-12-28T04:01:59.455Z,5.55
2017-12-28T04:02:59.406Z,5.65
2017-12-28T04:04:52.774Z,5.62
2017-12-28T04:05:52.723Z,5.59
2017-12-28T04:07:46.084Z,5.48
2017-12-28T04:08:46.045Z,5.57
2017-12-28T04:10:41.921Z,5.57
2017-12-28T04:11:41.871Z,5.59
2017-12-28T04:13:37.729Z,5.41
2017-12-28T04:14:37.727Z,5.48
2017-12-28T04:16:33.602Z,5.51
2017-12-28T04:17:33.558Z,5.48
2017-12-28T04:19:27.729Z,5.44
2017-12-28T04:20:27.752Z,5.34
2017-12-28T04:22:23.611Z,5.44
2017-12-28T04:23:23.563Z,5.36
2017-12-28T04:25:17.767Z,5.44
2017-12-28T04:26:17.748Z,5.47
2017-12-28T04:28:12.077Z,5.41
2017-12-28T04:29:12.024Z,5.40
2017-12-28T04:31:05.385Z,5.37
2017-12-28T04:32:05.332Z,5.36
2017-12-28T04:33:58.695Z,5.36
2017-12-28T04:34:58.657Z,5.36
2017-12-28T04:36:54.508Z,5.34
2017-12-28T04:37:54.467Z,5.32
2017-12-28T04:39:50.317Z,5.34
2017-12-28T04:40:50.273Z,5.34
2017-12-28T04:42:43.621Z,5.33
2017-12-28T04:43:43.579Z,5.27
2017-12-28T04:45:36.938Z,5.39
2017-12-28T04:46:36.891Z,5.40
2017-12-28T04:48:32.784Z,5.36
2017-12-28T04:49:32.708Z,5.40
2017-12-28T04:51:26.117Z,5.32
2017-12-28T04:52:26.085Z,5.29
2017-12-28T04:54:19.460Z,5.32
2017-12-28T04:55:19.415Z,5.39
2017-12-28T04:57:15.283Z,5.27
2017-12-28T04:58:15.242Z,5.27
2017-12-28T05:00:08.611Z,5.32
2017-12-28T05:01:08.572Z,5.32
2017-12-28T05:03:01.931Z,5.34
2017-12-28T05:04:01.886Z,5.34
2017-12-28T05:05:55.235Z,5.29
2017-12-28T05:06:55.194Z,5.30
2017-12-28T05:08:48.551Z,5.34
2017-12-28T05:09:48.506Z,5.30
2017-12-28T05:11:41.877Z,5.36
2017-12-28T05:12:41.846Z,5.29
2017-12-28T05:14:37.721Z,5.36
2017-12-28T05:15:37.673Z,5.32
2017-12-28T05:17:31.023Z,5.34
2017-12-28T05:18:30.982Z,5.33
2017-12-28T05:20:24.357Z,5.34
2017-12-28T05:21:24.324Z,5.32
2017-12-28T05:23:17.673Z,5.36
2017-12-28T05:24:17.627Z,5.43
2017-12-28T05:26:10.984Z,5.32
2017-12-28T05:27:10.946Z,5.32
2017-12-28T05:29:04.322Z,5.37
2017-12-28T05:30:04.272Z,5.43
2017-12-28T05:31:57.627Z,5.47
2017-12-28T05:32:57.591Z,5.41
2017-12-28T05:34:53.449Z,5.39
2017-12-28T05:35:53.400Z,5.41
2017-12-28T05:37:46.758Z,5.44
2017-12-28T05:38:46.712Z,5.41
2017-12-28T05:40:42.581Z,5.39
2017-12-28T05:41:42.537Z,5.41
2017-12-28T05:43:35.922Z,5.51
2017-12-28T05:44:35.846Z,5.51
2017-12-28T05:46:31.702Z,5.47
2017-12-28T05:47:31.659Z,5.47
2017-12-28T05:49:25.050Z,5.40
2017-12-28T05:50:25.009Z,5.44
2017-12-28T05:52:20.865Z,5.44
2017-12-28T05:53:20.823Z,5.55
2017-12-28T05:55:14.178Z,5.48
2017-12-28T05:56:14.133Z,5.50
2017-12-28T05:58:10.001Z,5.44
2017-12-28T05:59:09.950Z,5.39
2017-12-28T06:01:05.814Z,5.39
2017-12-28T06:02:05.770Z,5.37
2017-12-28T06:03:59.167Z,5.27
2017-12-28T06:04:59.112Z,5.30
2017-12-28T06:06:52.467Z,5.33
2017-12-28T06:07:52.426Z,5.29
2017-12-28T06:09:45.785Z,5.34
2017-12-28T06:10:45.744Z,5.29
2017-12-28T06:12:41.779Z,5.36
2017-12-28T06:13:41.582Z,5.33
2017-12-28T06:15:35.781Z,5.33
2017-12-28T06:16:35.738Z,5.39
2017-12-28T06:18:31.606Z,5.43
2017-12-28T06:19:31.567Z,5.44
2017-12-28T06:21:24.940Z,5.39
2017-12-28T06:22:24.889Z,5.41
2017-12-28T06:24:20.756Z,5.44
2017-12-28T06:25:20.713Z,5.43
2017-12-28T06:27:14.080Z,5.50
2017-12-28T06:28:14.033Z,5.40
2017-12-28T06:30:09.899Z,5.55
2017-12-28T06:31:09.856Z,5.48
2017-12-28T06:33:03.224Z,5.57
2017-12-28T06:34:03.180Z,5.59
2017-12-28T06:35:56.600Z,5.54
2017-12-28T06:36:56.549Z,5.57
2017-12-28T06:38:49.903Z,5.58
2017-12-28T06:39:49.867Z,5.58
2017-12-28T06:41:43.226Z,5.61
2017-12-28T06:42:43.182Z,5.59
2017-12-28T06:44:36.543Z,5.57
2017-12-28T06:45:36.502Z,5.61
2017-12-28T06:47:32.373Z,5.58
2017-12-28T06:48:32.328Z,5.61
2017-12-28T06:50:25.685Z,5.67
2017-12-28T06:51:25.642Z,5.65
2017-12-28T06:53:19.003Z,5.70
2017-12-28T06:54:18.962Z,5.65
2017-12-28T06:56:14.823Z,5.77
2017-12-28T06:57:14.790Z,5.70
2017-12-28T06:59:10.648Z,5.70
2017-12-28T07:00:10.601Z,5.72
2017-12-28T07:02:03.962Z,5.72
2017-12-28T07:03:03.921Z,5.72
2017-12-28T07:04:57.280Z,5.73
2017-12-28T07:05:57.241Z,5.66
2017-12-28T07:07:53.114Z,5.72
2017-12-28T07:08:53.121Z,5.69
2017-12-28T07:10:46.412Z,5.65
2017-12-28T07:11:46.369Z,5.69
2017-12-28T07:13:42.228Z,5.59
2017-12-28T07:14:42.183Z,5.66
2017-12-28T07:16:35.564Z,5.72
2017-12-28T07:17:35.523Z,5.70
2017-12-28T07:19:31.401Z,5.59
2017-12-28T07:20:31.349Z,5.67
2017-12-28T07:22:27.219Z,5.59
2017-12-28T07:23:27.272Z,5.67
2017-12-28T07:25:23.046Z,5.57
2017-12-28T07:26:23.003Z,5.61
2017-12-28T07:28:16.385Z,5.59
2017-12-28T07:29:16.339Z,5.55
2017-12-28T07:31:12.816Z,5.54
2017-12-28T07:32:12.164Z,5.59
2017-12-28T07:34:05.523Z,5.57
2017-12-28T07:35:05.479Z,5.48
2017-12-28T07:36:58.832Z,5.44
2017-12-28T07:37:59.162Z,5.54
2017-12-28T07:39:54.857Z,5.55
2017-12-28T07:40:54.816Z,5.59
2017-12-28T07:42:48.206Z,5.51
2017-12-28T07:43:48.185Z,5.57
2017-12-28T07:45:44.011Z,5.57
2017-12-28T07:46:43.966Z,5.55
2017-12-28T07:48:37.339Z,5.58
2017-12-28T07:49:37.298Z,5.57
2017-12-28T07:51:30.654Z,5.58
2017-12-28T07:52:30.610Z,5.57
2017-12-28T07:54:23.965Z,5.54
2017-12-28T07:55:23.945Z,5.50
2017-12-28T07:57:19.793Z,5.51
2017-12-28T07:58:19.764Z,5.52
2017-12-28T08:00:13.131Z,5.51
2017-12-28T08:01:13.070Z,5.51
2017-12-28T08:03:08.945Z,5.50
2017-12-28T08:04:08.904Z,5.51
2017-12-28T08:06:04.768Z,5.51
2017-12-28T08:07:04.723Z,5.48
2017-12-28T08:09:00.608Z,5.50
2017-12-28T08:10:00.555Z,5.48
2017-12-28T08:11:53.950Z,5.40
2017-12-28T08:12:53.893Z,5.51
2017-12-28T08:14:47.272Z,5.39
2017-12-28T08:15:47.230Z,5.47
2017-12-28T08:17:40.589Z,5.34
2017-12-28T08:18:40.551Z,5.37
2017-12-28T08:20:33.922Z,5.48
2017-12-28T08:21:33.877Z,5.44
2017-12-28T08:23:27.261Z,5.39
2017-12-28T08:24:27.210Z,5.40
2017-12-28T08:26:23.080Z,5.37
2017-12-28T08:27:23.019Z,5.40
2017-12-28T08:29:16.366Z,5.36
2017-12-28T08:30:16.327Z,5.41
2017-12-28T08:32:09.685Z,5.48
2017-12-28T08:33:09.640Z,5.39
2017-12-28T08:35:05.508Z,5.43
2017-12-28T08:36:05.478Z,5.47
2017-12-28T08:38:01.365Z,5.41
2017-12-28T08:39:01.296Z,5.39
2017-12-28T08:40:54.697Z,5.37
2017-12-28T08:41:54.650Z,5.34
2017-12-28T08:43:50.528Z,5.47
2017-12-28T08:44:50.463Z,5.51
2017-12-28T08:46:46.361Z,5.50
2017-12-28T08:47:46.333Z,5.47
2017-12-28T08:49:39.652Z,5.58
2017-12-28T08:50:39.603Z,5.61
2017-12-28T08:52:35.464Z,5.59
2017-12-28T08:53:35.425Z,5.61
2017-12-28T08:55:31.332Z,5.61
2017-12-28T08:56:31.346Z,5.66
2017-12-28T08:58:24.659Z,5.65
2017-12-28T08:59:24.612Z,5.69
2017-12-28T09:01:20.463Z,5.72
2017-12-28T09:02:20.420Z,5.69
2017-12-28T09:04:13.797Z,5.66
2017-12-28T09:05:13.736Z,5.80
2017-12-28T09:07:09.722Z,5.84
2017-12-28T09:08:09.569Z,5.82
2017-12-28T09:10:05.438Z,5.90
2017-12-28T09:11:05.381Z,5.85
2017-12-28T09:12:58.782Z,5.90
2017-12-28T09:13:58.741Z,5.82
2017-12-28T09:15:52.100Z,5.88
2017-12-28T09:16:52.052Z,5.85
2017-12-28T09:18:45.418Z,5.97
2017-12-28T09:19:45.373Z,5.90
2017-12-28T09:21:38.764Z,5.88
2017-12-28T09:22:38.707Z,5.91
2017-12-28T09:24:34.622Z,6.06
2017-12-28T09:25:34.776Z,5.93
2017-12-28T09:27:27.904Z,6.00
2017-12-28T09:28:27.863Z,5.97
2017-12-28T09:30:21.220Z,5.98
2017-12-28T09:31:21.177Z,5.90
2017-12-28T09:33:14.572Z,5.95
2017-12-28T09:34:14.515Z,5.94
2017-12-28T09:36:07.860Z,5.91
2017-12-28T09:37:07.819Z,5.93
2017-12-28T09:39:01.536Z,5.91
2017-12-28T09:40:01.493Z,5.94
2017-12-28T09:41:55.074Z,5.94
2017-12-28T09:42:55.033Z,5.95
2017-12-28T09:44:48.818Z,5.90
2017-12-28T09:45:48.365Z,5.90
2017-12-28T09:47:44.233Z,5.82
2017-12-28T09:48:44.196Z,5.88
2017-12-28T09:50:37.559Z,5.90
2017-12-28T09:51:37.513Z,5.75
2017-12-28T09:53:31.753Z,5.73
2017-12-28T09:54:31.716Z,5.85
2017-12-28T09:56:25.077Z,5.84
2017-12-28T09:57:25.046Z,5.84
2017-12-28T09:59:18.405Z,5.79
2017-12-28T10:00:18.370Z,5.90
2017-12-28T10:02:11.742Z,5.88
2017-12-28T10:03:11.688Z,5.82
2017-12-28T10:05:07.559Z,5.88
2017-12-28T10:06:07.512Z,5.88
2017-12-28T10:08:00.867Z,5.87
2017-12-28T10:09:00.823Z,5.87
2017-12-28T10:10:54.289Z,5.82
2017-12-28T10:11:54.158Z,5.90
2017-12-28T10:13:47.511Z,5.84
2017-12-28T10:14:47.451Z,5.93
2017-12-28T10:16:40.813Z,5.84
2017-12-28T10:17:40.772Z,5.88
2017-12-28T10:19:34.133Z,5.90
2017-12-28T10:20:34.090Z,5.77
2017-12-28T10:22:27.447Z,5.93
2017-12-28T10:23:27.408Z,5.84
2017-12-28T10:25:23.312Z,5.88
2017-12-28T10:26:23.226Z,5.87
2017-12-28T10:28:17.443Z,5.84
2017-12-28T10:29:17.394Z,5.87
2017-12-28T10:31:10.757Z,5.85
2017-12-28T10:32:10.714Z,5.82
2017-12-28T10:34:04.078Z,5.84
2017-12-28T10:35:04.035Z,5.82
2017-12-28T10:36:57.394Z,5.84
2017-12-28T10:37:57.351Z,5.85
2017-12-28T10:39:50.701Z,5.84
2017-12-28T10:40:50.664Z,5.84
2017-12-28T10:42:46.568Z,5.77
2017-12-28T10:43:46.492Z,5.87
2017-12-28T10:45:42.356Z,5.80
2017-12-28T10:46:42.311Z,5.84
2017-12-28T10:48:38.999Z,5.91
2017-12-28T10:49:38.958Z,5.84
2017-12-28T10:51:33.189Z,5.90
2017-12-28T10:52:33.147Z,5.91
2017-12-28T10:54:29.996Z,5.84
2017-12-28T10:55:29.952Z,5.94
2017-12-28T10:56:29.929Z,5.94
2017-12-28T10:57:29.900Z,5.93
2017-12-28T10:58:29.879Z,5.90
2017-12-28T10:59:29.856Z,5.93
2017-12-28T11:00:29.833Z,6.05
2017-12-28T11:01:29.818Z,6.00
2017-12-28T11:02:29.779Z,5.98
2017-12-28T11:03:29.756Z,6.02
2017-12-28T11:04:29.731Z,6.00
2017-12-28T11:05:29.708Z,6.02
2017-12-28T11:06:29.680Z,6.05
2017-12-28T11:07:29.656Z,6.12
2017-12-28T11:08:29.659Z,6.02
2017-12-28T11:09:29.629Z,6.09
2017-12-28T11:10:29.583Z,6.06
2017-12-28T11:11:29.568Z,6.06
2017-12-28T11:12:29.535Z,6.08
2017-12-28T11:13:29.519Z,6.05
2017-12-28T11:14:29.483Z,5.95
2017-12-28T11:15:29.462Z,6.05
2017-12-28T11:16:29.437Z,6.00
2017-12-28T11:17:29.410Z,6.15
2017-12-28T11:18:29.391Z,6.03
2017-12-28T11:19:29.364Z,5.98
2017-12-28T11:20:29.339Z,6.09
2017-12-28T11:21:29.315Z,6.02
2017-12-28T11:22:29.289Z,6.03
2017-12-28T11:23:29.259Z,6.03
2017-12-28T11:24:29.239Z,6.08
2017-12-28T11:25:29.222Z,6.05
2017-12-28T11:26:29.189Z,6.09
2017-12-28T11:27:29.168Z,6.11
2017-12-28T11:28:29.143Z,6.09
2017-12-28T11:29:29.122Z,6.11
2017-12-28T11:30:29.093Z,6.08
2017-12-28T11:31:29.070Z,6.09
2017-12-28T11:32:29.045Z,6.11
2017-12-28T11:33:29.020Z,6.21
2017-12-28T11:34:28.995Z,6.13
2017-12-28T11:35:28.978Z,6.24
2017-12-28T11:36:28.947Z,6.16
2017-12-28T11:37:28.920Z,6.27
2017-12-28T11:38:28.903Z,6.13
2017-12-28T11:39:28.874Z,6.19
2017-12-28T11:40:28.847Z,6.32
2017-12-28T11:41:28.829Z,6.25
2017-12-28T11:42:28.819Z,6.21
2017-12-28T11:43:28.778Z,6.31
2017-12-28T11:44:28.753Z,6.31
2017-12-28T11:45:28.728Z,6.30
2017-12-28T11:46:28.706Z,6.31
2017-12-28T11:47:28.734Z,6.34
2017-12-28T11:48:28.657Z,6.24
2017-12-28T11:49:28.624Z,6.30
2017-12-28T11:50:28.601Z,6.25
2017-12-28T11:51:28.578Z,6.27
2017-12-28T11:52:28.555Z,6.25
2017-12-28T11:53:28.532Z,6.28
2017-12-28T11:54:28.510Z,6.27
2017-12-28T11:55:28.482Z,6.28
2017-12-28T11:56:28.465Z,6.32
2017-12-28T11:57:28.436Z,6.28
2017-12-28T11:58:28.405Z,6.31
2017-12-28T11:59:28.390Z,6.28
2017-12-28T12:00:28.359Z,6.28
2017-12-28T12:01:28.334Z,6.34
2017-12-28T12:02:28.309Z,6.32
2017-12-28T12:03:28.284Z,6.32
2017-12-28T12:04:28.265Z,6.38
2017-12-28T12:05:28.266Z,6.37
2017-12-28T12:06:28.222Z,6.30
2017-12-28T12:07:28.186Z,6.28
2017-12-28T12:08:28.159Z,6.28
2017-12-28T12:09:28.142Z,6.28
2017-12-28T12:10:28.113Z,6.25
2017-12-28T12:11:28.088Z,6.32
2017-12-28T12:12:28.065Z,6.24
2017-12-28T12:13:28.039Z,6.30
2017-12-28T12:14:28.013Z,6.34
2017-12-28T12:15:27.990Z,6.27
2017-12-28T12:16:27.965Z,6.27
2017-12-28T12:17:27.950Z,6.30
2017-12-28T12:18:27.913Z,6.27
2017-12-28T12:19:27.900Z,6.12
2017-12-28T12:20:27.873Z,6.13
2017-12-28T12:21:27.846Z,6.11
2017-12-28T12:22:27.829Z,6.18
2017-12-28T12:23:27.802Z,6.25
2017-12-28T12:24:27.802Z,6.15
2017-12-28T12:25:27.750Z,6.13
2017-12-28T12:26:27.717Z,6.16
2017-12-28T12:27:27.702Z,6.13
2017-12-28T12:28:27.679Z,6.13
2017-12-28T12:29:27.649Z,6.16
2017-12-28T12:30:27.623Z,6.18
2017-12-28T12:31:27.600Z,6.19
2017-12-28T12:32:27.574Z,6.15
2017-12-28T12:33:27.549Z,6.19
2017-12-28T12:34:27.522Z,6.11
2017-12-28T12:35:27.501Z,6.24
2017-12-28T12:36:27.479Z,6.25
2017-12-28T12:37:27.445Z,6.28
2017-12-28T12:38:27.429Z,6.28
2017-12-28T12:39:27.407Z,6.15
2017-12-28T12:40:28.065Z,6.25
2017-12-28T12:41:27.356Z,6.25
2017-12-28T12:42:27.327Z,6.15
2017-12-28T12:43:27.307Z,6.18
2017-12-28T12:44:27.278Z,6.12
2017-12-28T12:45:27.256Z,6.12
2017-12-28T12:46:27.236Z,6.19
2017-12-28T12:47:27.208Z,6.09
2017-12-28T12:48:27.181Z,6.12
2017-12-28T12:49:27.156Z,6.16
2017-12-28T12:50:27.133Z,6.13
2017-12-28T12:51:27.107Z,6.16
2017-12-28T12:52:27.084Z,6.13
2017-12-28T12:53:27.058Z,6.19
2017-12-28T12:54:27.038Z,6.15
2017-12-28T12:55:27.010Z,6.13
2017-12-28T12:56:26.996Z,6.18
2017-12-28T12:57:26.964Z,6.16
2017-12-28T12:58:26.937Z,6.15
2017-12-28T12:59:26.914Z,6.13
2017-12-28T13:00:26.891Z,6.18
2017-12-28T13:01:26.861Z,6.19
2017-12-28T13:02:26.839Z,6.18
2017-12-28T13:03:26.809Z,6.15
2017-12-28T13:04:26.793Z,6.11
2017-12-28T13:05:26.766Z,6.18
2017-12-28T13:06:26.741Z,6.11
2017-12-28T13:07:26.724Z,6.16
2017-12-28T13:08:26.688Z,6.13
2017-12-28T13:09:26.674Z,6.12
2017-12-28T13:10:26.648Z,6.13
2017-12-28T13:11:26.618Z,6.12
2017-12-28T13:12:26.595Z,6.12
2017-12-28T13:13:26.568Z,6.19
2017-12-28T13:14:26.543Z,6.13
2017-12-28T13:15:26.522Z,6.18
2017-12-28T13:16:26.495Z,6.15
2017-12-28T13:17:26.470Z,6.12
2017-12-28T13:18:26.445Z,6.19
2017-12-28T13:19:26.424Z,6.13
2017-12-28T13:20:26.395Z,6.15
2017-12-28T13:21:26.376Z,6.15
2017-12-28T13:22:26.352Z,6.13
2017-12-28T13:23:26.344Z,6.15
2017-12-28T13:25:02.076Z,6.13
2017-12-28T13:25:26.278Z,6.18
2017-12-28T13:26:26.253Z,6.16
2017-12-28T13:27:26.230Z,6.08
2017-12-28T13:28:26.197Z,6.13
2017-12-28T13:29:26.177Z,6.09
2017-12-28T13:30:26.155Z,6.12
2017-12-28T13:31:26.128Z,6.13
2017-12-28T13:32:26.101Z,6.13
2017-12-28T13:33:26.079Z,6.11
2017-12-28T13:34:26.058Z,6.13
2017-12-28T13:35:26.030Z,6.11
2017-12-28T13:36:26.005Z,6.03
2017-12-28T13:37:25.982Z,6.15
2017-12-28T13:38:25.955Z,6.13
2017-12-28T13:39:25.971Z,6.11
2017-12-28T13:40:25.907Z,6.13
2017-12-28T13:41:25.990Z,6.06
2017-12-28T13:42:25.858Z,6.09
2017-12-28T13:43:25.831Z,6.12
2017-12-28T13:44:25.809Z,6.24
2017-12-28T13:45:25.781Z,6.13
2017-12-28T13:46:25.760Z,6.16
2017-12-28T13:47:25.735Z,6.15
2017-12-28T13:48:25.723Z,6.18
2017-12-28T13:49:25.685Z,6.16
2017-12-28T13:50:25.661Z,6.15
2017-12-28T13:51:25.636Z,6.16
2017-12-28T13:52:25.614Z,6.18
2017-12-28T13:53:25.587Z,6.18
2017-12-28T13:54:25.565Z,6.18
2017-12-28T13:55:25.535Z,6.18
2017-12-28T13:56:25.514Z,6.16
2017-12-28T13:57:25.488Z,6.19
2017-12-28T13:58:25.460Z,6.18
2017-12-28T13:59:25.437Z,6.05
2017-12-28T14:00:25.414Z,6.13
2017-12-28T14:01:25.393Z,6.11
2017-12-28T14:02:25.364Z,6.21
2017-12-28T14:03:25.345Z,6.16
2017-12-28T14:04:25.315Z,6.15
2017-12-28T14:05:25.309Z,6.21
2017-12-28T14:06:25.266Z,6.15
2017-12-28T14:07:25.237Z,6.19
2017-12-28T14:08:25.219Z,6.30
2017-12-28T14:09:25.193Z,6.12
2017-12-28T14:10:25.169Z,6.30
2017-12-28T14:11:25.142Z,6.21
2017-12-28T14:12:25.118Z,6.27
2017-12-28T14:13:25.101Z,6.21
2017-12-28T14:14:25.077Z,6.25
2017-12-28T14:15:25.062Z,6.24
2017-12-28T14:16:25.051Z,6.18
2017-12-28T14:17:25.002Z,6.13
2017-12-28T14:18:24.976Z,6.15
2017-12-28T14:19:24.949Z,6.15
2017-12-28T14:20:24.925Z,6.15
2017-12-28T14:21:24.904Z,6.16
2017-12-28T14:22:24.874Z,6.09
2017-12-28T14:23:24.849Z,6.09
2017-12-28T14:24:24.822Z,6.15
2017-12-28T14:25:24.808Z,6.13
2017-12-28T14:26:24.777Z,6.15
2017-12-28T14:27:24.756Z,6.18
2017-12-28T14:28:24.724Z,6.12
2017-12-28T14:29:24.701Z,6.18
2017-12-28T14:30:24.681Z,6.11
2017-12-28T14:31:24.656Z,6.13
2017-12-28T14:32:24.636Z,6.12
2017-12-28T14:33:24.603Z,6.08
2017-12-28T14:34:24.580Z,6.12
2017-12-28T14:35:24.561Z,6.05
2017-12-28T14:36:24.528Z,6.09
2017-12-28T14:37:24.508Z,6.06
2017-12-28T14:38:24.480Z,6.09
2017-12-28T14:39:24.461Z,6.05
2017-12-28T14:40:24.432Z,6.12
2017-12-28T14:41:24.409Z,6.06
2017-12-28T14:42:24.386Z,6.06
2017-12-28T14:43:24.357Z,5.97
2017-12-28T14:44:24.333Z,6.02
2017-12-28T14:45:24.311Z,5.98
2017-12-28T14:46:24.282Z,6.02
2017-12-28T14:47:24.261Z,5.94
2017-12-28T14:48:24.236Z,6.02
2017-12-28T14:49:24.212Z,6.02
2017-12-28T14:50:24.188Z,6.02
2017-12-28T14:51:24.217Z,5.97
2017-12-28T14:52:24.169Z,5.90
2017-12-28T14:53:24.136Z,5.94
2017-12-28T14:54:24.086Z,5.91
2017-12-28T14:55:38.591Z,5.91
2017-12-28T14:56:24.051Z,5.80
2017-12-28T14:57:24.014Z,5.82
2017-12-28T14:58:23.988Z,5.85
2017-12-28T14:59:23.963Z,5.87
2017-12-28T15:00:23.944Z,5.90
2017-12-28T15:01:23.921Z,5.85
2017-12-28T15:02:23.892Z,5.76
2017-12-28T15:03:23.865Z,5.85
2017-12-28T15:04:23.844Z,5.80
2017-12-28T15:05:23.817Z,5.69
2017-12-28T15:06:23.796Z,5.69
2017-12-28T15:07:23.768Z,5.75
2017-12-28T15:08:23.742Z,5.72
2017-12-28T15:09:23.717Z,5.70
2017-12-28T15:10:23.695Z,5.69
2017-12-28T15:11:23.667Z,5.65
2017-12-28T15:12:23.647Z,5.70
2017-12-28T15:13:23.619Z,5.65
2017-12-28T15:14:23.596Z,5.66
2017-12-28T15:15:23.573Z,5.58
2017-12-28T15:16:23.544Z,5.66
2017-12-28T15:17:23.523Z,5.58
2017-12-28T15:18:23.498Z,5.65
2017-12-28T15:19:23.473Z,5.69
2017-12-28T15:20:23.447Z,5.59
2017-12-28T15:21:23.423Z,5.62
2017-12-28T15:22:23.398Z,5.65
2017-12-28T15:23:23.371Z,5.58
2017-12-28T15:24:23.346Z,5.65
2017-12-28T15:25:23.325Z,5.57
2017-12-28T15:26:23.304Z,5.59
2017-12-28T15:27:23.278Z,5.57
2017-12-28T15:28:23.250Z,5.59
2017-12-28T15:29:23.228Z,5.65
2017-12-28T15:30:23.202Z,5.57
2017-12-28T15:31:23.175Z,5.47
2017-12-28T15:32:23.152Z,5.58
2017-12-28T15:33:23.127Z,5.50
2017-12-28T15:34:23.100Z,5.57
2017-12-28T15:35:23.084Z,5.51
2017-12-28T15:36:23.052Z,5.58
2017-12-28T15:37:23.026Z,5.52
2017-12-28T15:38:23.002Z,5.48
2017-12-28T15:39:22.977Z,5.51
2017-12-28T15:40:22.954Z,5.54
2017-12-28T15:41:22.933Z,5.48
2017-12-28T15:42:22.942Z,5.59
2017-12-28T15:43:22.877Z,5.47
2017-12-28T15:44:22.850Z,5.48
2017-12-28T15:45:22.831Z,5.51
2017-12-28T15:46:22.802Z,5.52
2017-12-28T15:47:22.783Z,5.51
2017-12-28T15:48:22.756Z,5.50
2017-12-28T15:49:22.731Z,5.47
2017-12-28T15:50:22.702Z,5.44
2017-12-28T15:51:22.677Z,5.51
2017-12-28T15:52:22.650Z,5.37
2017-12-28T15:53:22.635Z,5.51
2017-12-28T15:54:22.604Z,5.39
2017-12-28T15:55:22.580Z,5.47
2017-12-28T15:56:22.660Z,5.40
2017-12-28T15:57:22.529Z,5.47
2017-12-28T15:58:22.531Z,5.47
2017-12-28T15:59:22.489Z,5.37
2017-12-28T16:00:22.454Z,5.36
2017-12-28T16:01:22.429Z,5.34
2017-12-28T16:02:22.404Z,5.36
2017-12-28T16:03:22.383Z,5.39
2017-12-28T16:04:22.360Z,5.44
2017-12-28T16:05:22.338Z,5.41
2017-12-28T16:06:22.308Z,5.41
2017-12-28T16:07:22.317Z,5.37
2017-12-28T16:08:22.256Z,5.43
2017-12-28T16:09:22.233Z,5.47
2017-12-28T16:10:22.210Z,5.36
2017-12-28T16:11:22.182Z,5.41
2017-12-28T16:12:22.157Z,5.43
2017-12-28T16:13:22.133Z,5.37
2017-12-28T16:14:22.106Z,5.37
2017-12-28T16:15:22.083Z,5.41
2017-12-28T16:16:22.058Z,5.43
2017-12-28T16:17:22.033Z,5.44
2017-12-28T16:18:22.012Z,5.48
2017-12-28T16:19:21.984Z,5.34
2017-12-28T16:20:21.961Z,5.48
2017-12-28T16:21:21.931Z,5.41
2017-12-28T16:22:21.908Z,5.36
2017-12-28T16:23:21.884Z,5.33
2017-12-28T16:24:21.862Z,5.30
2017-12-28T16:25:21.837Z,5.30
2017-12-28T16:26:49.616Z,5.30
2017-12-28T16:27:21.782Z,5.30
2017-12-28T16:28:21.762Z,5.19
2017-12-28T16:29:21.735Z,5.30
2017-12-28T16:30:21.713Z,5.29
2017-12-28T16:31:21.687Z,5.27
2017-12-28T16:32:21.666Z,5.25
2017-12-28T16:33:21.635Z,5.29
2017-12-28T16:34:21.610Z,5.27
2017-12-28T16:35:21.585Z,5.29
2017-12-28T16:36:21.566Z,5.30
2017-12-28T16:37:21.534Z,5.25
2017-12-28T16:38:21.510Z,5.27
2017-12-28T16:39:21.489Z,5.34
2017-12-28T16:40:21.464Z,5.27
2017-12-28T16:41:21.434Z,5.27
2017-12-28T16:42:21.417Z,5.27